WZZ4BB EDDB-LHBP
Flight info
| Callsign | WZZ4BB |
|---|---|
| Flight time | 1h 9m |
| Altitude | 35000 |
| Route | ARSAP4B/06L ARSAP Y210 OLUMA T710 KULUV DCT DESEN DCT VALPI DCT NIT/N0377F230 M748 ARFOX |
| Aircraft | A321/M-SDE1E2E3FGIJ1J4RWXY/LB1 |
Departure
| Time | 2026-05-06 13:00 |
|---|---|
| Airport | Berlin Brandenburg Airport (EDDB) |
Arrival
| Time | 2026-05-06 14:09 |
|---|---|
| Airport | Budapest Liszt Ferenc International Airport (LHBP) |
| Time | Latitude | Longitude | Altitude | Speed | Heading |
|---|---|---|---|---|---|
| 2026-05-06 12:36 | 52.36766 | 13.50617 | 155 ft | 0 kts | 159° |
| 2026-05-06 12:50 | 52.36772 | 13.50613 | 155 ft | 2 kts | 159° |
| 2026-05-06 12:50 | 52.36790 | 13.50601 | 155 ft | 3 kts | 158° |
| 2026-05-06 12:50 | 52.36805 | 13.50591 | 156 ft | 3 kts | 162° |
| 2026-05-06 12:50 | 52.36822 | 13.50586 | 156 ft | 3 kts | 201° |
| 2026-05-06 12:51 | 52.36836 | 13.50602 | 156 ft | 3 kts | 238° |
| 2026-05-06 12:51 | 52.36844 | 13.50626 | 155 ft | 1 kts | 249° |
| 2026-05-06 12:51 | 52.36846 | 13.50634 | 155 ft | 0 kts | 249° |
| 2026-05-06 12:53 | 52.36845 | 13.50630 | 155 ft | 2 kts | 248° |
| 2026-05-06 12:53 | 52.36834 | 13.50583 | 155 ft | 8 kts | 249° |
| 2026-05-06 12:54 | 52.36810 | 13.50483 | 156 ft | 9 kts | 249° |
| 2026-05-06 12:54 | 52.36788 | 13.50389 | 156 ft | 10 kts | 249° |
| 2026-05-06 12:54 | 52.36766 | 13.50296 | 154 ft | 4 kts | 248° |
| 2026-05-06 12:54 | 52.36753 | 13.50243 | 154 ft | 7 kts | 249° |
| 2026-05-06 12:55 | 52.36731 | 13.50146 | 151 ft | 11 kts | 254° |
| 2026-05-06 12:55 | 52.36765 | 13.50033 | 149 ft | 12 kts | 319° |
| 2026-05-06 12:55 | 52.36766 | 13.49889 | 148 ft | 14 kts | 248° |
| 2026-05-06 12:55 | 52.36726 | 13.49730 | 148 ft | 16 kts | 247° |
| 2026-05-06 12:56 | 52.36685 | 13.49554 | 148 ft | 17 kts | 250° |
| 2026-05-06 12:56 | 52.36641 | 13.49363 | 148 ft | 19 kts | 249° |
| 2026-05-06 12:56 | 52.36592 | 13.49158 | 148 ft | 20 kts | 249° |
| 2026-05-06 12:56 | 52.36540 | 13.48939 | 148 ft | 21 kts | 249° |
| 2026-05-06 12:57 | 52.36487 | 13.48715 | 148 ft | 20 kts | 248° |
| 2026-05-06 12:57 | 52.36440 | 13.48518 | 148 ft | 14 kts | 252° |
| 2026-05-06 12:57 | 52.36480 | 13.48393 | 147 ft | 14 kts | 338° |
| 2026-05-06 12:57 | 52.36555 | 13.48346 | 149 ft | 11 kts | 339° |
| 2026-05-06 12:58 | 52.36628 | 13.48300 | 150 ft | 11 kts | 339° |
| 2026-05-06 12:58 | 52.36691 | 13.48290 | 153 ft | 8 kts | 12° |
| 2026-05-06 12:58 | 52.36726 | 13.48329 | 155 ft | 5 kts | 51° |
| 2026-05-06 12:58 | 52.36734 | 13.48357 | 155 ft | 0 kts | 68° |
| 2026-05-06 12:59 | 52.36803 | 13.48644 | 157 ft | 65 kts | 69° |
| 2026-05-06 12:59 | 52.37056 | 13.49713 | 159 ft | 133 kts | 68° |
| 2026-05-06 12:59 | 52.37446 | 13.51381 | 274 ft | 175 kts | 68° |
| 2026-05-06 13:00 | 52.37869 | 13.53250 | 1043 ft | 177 kts | 68° |
| 2026-05-06 13:00 | 52.38332 | 13.55230 | 1498 ft | 197 kts | 67° |
| 2026-05-06 13:00 | 52.38862 | 13.57439 | 1822 ft | 221 kts | 67° |
| 2026-05-06 13:00 | 52.39453 | 13.59915 | 2271 ft | 245 kts | 67° |
| 2026-05-06 13:01 | 52.40087 | 13.62583 | 3020 ft | 256 kts | 68° |
| 2026-05-06 13:01 | 52.40736 | 13.65326 | 3912 ft | 262 kts | 68° |
| 2026-05-06 13:01 | 52.41403 | 13.68149 | 4800 ft | 268 kts | 68° |
| 2026-05-06 13:01 | 52.42085 | 13.71046 | 5618 ft | 277 kts | 68° |
| 2026-05-06 13:02 | 52.42790 | 13.74033 | 6335 ft | 285 kts | 68° |
| 2026-05-06 13:02 | 52.43512 | 13.77098 | 7063 ft | 291 kts | 69° |
| 2026-05-06 13:02 | 52.44265 | 13.80213 | 7819 ft | 297 kts | 68° |
| 2026-05-06 13:02 | 52.44700 | 13.83532 | 8532 ft | 302 kts | 92° |
| 2026-05-06 13:03 | 52.44297 | 13.86890 | 9255 ft | 303 kts | 115° |
| 2026-05-06 13:03 | 52.43488 | 13.90102 | 10000 ft | 308 kts | 116° |
| 2026-05-06 13:03 | 52.42630 | 13.93458 | 10260 ft | 331 kts | 116° |
| 2026-05-06 13:03 | 52.41713 | 13.97038 | 10598 ft | 348 kts | 116° |
| 2026-05-06 13:04 | 52.40774 | 14.00733 | 11261 ft | 354 kts | 116° |
| 2026-05-06 13:04 | 52.39831 | 14.04477 | 11985 ft | 357 kts | 116° |
| 2026-05-06 13:04 | 52.38885 | 14.08256 | 12727 ft | 361 kts | 116° |
| 2026-05-06 13:04 | 52.37929 | 14.12072 | 13460 ft | 364 kts | 116° |
| 2026-05-06 13:05 | 52.36963 | 14.15921 | 14117 ft | 367 kts | 116° |
| 2026-05-06 13:05 | 52.35982 | 14.19804 | 14764 ft | 371 kts | 116° |
| 2026-05-06 13:05 | 52.34991 | 14.23713 | 15399 ft | 374 kts | 116° |
| 2026-05-06 13:05 | 52.33990 | 14.27662 | 16048 ft | 378 kts | 116° |
| 2026-05-06 13:06 | 52.32976 | 14.31651 | 16702 ft | 381 kts | 117° |
| 2026-05-06 13:06 | 52.31952 | 14.35666 | 17346 ft | 385 kts | 117° |
| 2026-05-06 13:06 | 52.30929 | 14.39671 | 17973 ft | 388 kts | 117° |
| 2026-05-06 13:06 | 52.29884 | 14.43759 | 18549 ft | 392 kts | 117° |
| 2026-05-06 13:07 | 52.28828 | 14.47887 | 19115 ft | 395 kts | 117° |
| 2026-05-06 13:07 | 52.27763 | 14.52037 | 19703 ft | 398 kts | 117° |
| 2026-05-06 13:07 | 52.26685 | 14.56226 | 20258 ft | 401 kts | 117° |
| 2026-05-06 13:07 | 52.25597 | 14.60441 | 20824 ft | 404 kts | 117° |
| 2026-05-06 13:08 | 52.24500 | 14.64683 | 21386 ft | 408 kts | 117° |
| 2026-05-06 13:08 | 52.23393 | 14.68959 | 21955 ft | 411 kts | 117° |
| 2026-05-06 13:08 | 52.22248 | 14.73249 | 22511 ft | 413 kts | 119° |
| 2026-05-06 13:08 | 52.21004 | 14.77491 | 23053 ft | 416 kts | 121° |
| 2026-05-06 13:09 | 52.19686 | 14.81699 | 23545 ft | 418 kts | 122° |
| 2026-05-06 13:09 | 52.18324 | 14.85909 | 23986 ft | 421 kts | 123° |
| 2026-05-06 13:09 | 52.16948 | 14.90138 | 24418 ft | 424 kts | 123° |
| 2026-05-06 13:09 | 52.15571 | 14.94406 | 24844 ft | 427 kts | 123° |
| 2026-05-06 13:10 | 52.14201 | 14.98717 | 25276 ft | 430 kts | 123° |
| 2026-05-06 13:10 | 52.12833 | 15.03058 | 25703 ft | 433 kts | 123° |
| 2026-05-06 13:10 | 52.11461 | 15.07429 | 26124 ft | 435 kts | 123° |
| 2026-05-06 13:10 | 52.10077 | 15.11826 | 26546 ft | 438 kts | 123° |
| 2026-05-06 13:11 | 52.08683 | 15.16244 | 26960 ft | 440 kts | 123° |
| 2026-05-06 13:11 | 52.07279 | 15.20683 | 27363 ft | 443 kts | 123° |
| 2026-05-06 13:11 | 52.05882 | 15.25090 | 27763 ft | 445 kts | 123° |
| 2026-05-06 13:11 | 52.04458 | 15.29568 | 28164 ft | 448 kts | 124° |
| 2026-05-06 13:12 | 52.03021 | 15.34076 | 28557 ft | 450 kts | 124° |
| 2026-05-06 13:12 | 52.01577 | 15.38605 | 28945 ft | 453 kts | 124° |
| 2026-05-06 13:12 | 52.00125 | 15.43152 | 29327 ft | 455 kts | 124° |
| 2026-05-06 13:12 | 51.98661 | 15.47721 | 29695 ft | 458 kts | 124° |
| 2026-05-06 13:13 | 51.97185 | 15.52319 | 30013 ft | 460 kts | 124° |
| 2026-05-06 13:13 | 51.95700 | 15.56935 | 30319 ft | 463 kts | 124° |
| 2026-05-06 13:13 | 51.94206 | 15.61572 | 30617 ft | 466 kts | 124° |
| 2026-05-06 13:13 | 51.92702 | 15.66231 | 30928 ft | 468 kts | 124° |
| 2026-05-06 13:14 | 51.91185 | 15.70913 | 31228 ft | 470 kts | 124° |
| 2026-05-06 13:14 | 51.89636 | 15.75574 | 31616 ft | 467 kts | 128° |
| 2026-05-06 13:14 | 51.87851 | 15.79932 | 32033 ft | 463 kts | 131° |
| 2026-05-06 13:14 | 51.86037 | 15.84226 | 32462 ft | 462 kts | 131° |
| 2026-05-06 13:15 | 51.84220 | 15.88515 | 32892 ft | 461 kts | 131° |
| 2026-05-06 13:15 | 51.82406 | 15.92786 | 33317 ft | 460 kts | 131° |
| 2026-05-06 13:15 | 51.80595 | 15.97038 | 33747 ft | 459 kts | 131° |
| 2026-05-06 13:15 | 51.78784 | 16.01288 | 34094 ft | 459 kts | 131° |
| 2026-05-06 13:16 | 51.76977 | 16.05527 | 34424 ft | 458 kts | 131° |
| 2026-05-06 13:16 | 51.75168 | 16.09758 | 34690 ft | 459 kts | 131° |
| 2026-05-06 13:16 | 51.73360 | 16.13978 | 34757 ft | 454 kts | 131° |
| 2026-05-06 13:17 | 51.69802 | 16.22270 | 34764 ft | 448 kts | 131° |
| 2026-05-06 13:17 | 51.66181 | 16.30387 | 34758 ft | 441 kts | 138° |
| 2026-05-06 13:18 | 51.61659 | 16.36620 | 34760 ft | 424 kts | 156° |
| 2026-05-06 13:18 | 51.56530 | 16.41189 | 34755 ft | 422 kts | 158° |
| 2026-05-06 13:19 | 51.51380 | 16.45716 | 34748 ft | 422 kts | 158° |
| 2026-05-06 13:19 | 51.46228 | 16.50240 | 34751 ft | 422 kts | 158° |
| 2026-05-06 13:20 | 51.41077 | 16.54746 | 34751 ft | 422 kts | 158° |
| 2026-05-06 13:20 | 51.35919 | 16.59248 | 34749 ft | 422 kts | 158° |
| 2026-05-06 13:21 | 51.30757 | 16.63751 | 34754 ft | 423 kts | 158° |
| 2026-05-06 13:21 | 51.26464 | 16.67485 | 34763 ft | 423 kts | 158° |
| 2026-05-06 13:22 | 51.21296 | 16.71957 | 34763 ft | 423 kts | 158° |
| 2026-05-06 13:22 | 51.16116 | 16.76428 | 34767 ft | 423 kts | 158° |
| 2026-05-06 13:23 | 51.10936 | 16.80891 | 34764 ft | 424 kts | 158° |
| 2026-05-06 13:23 | 51.05747 | 16.85359 | 34766 ft | 424 kts | 158° |
| 2026-05-06 13:24 | 51.00556 | 16.89817 | 34766 ft | 424 kts | 158° |
| 2026-05-06 13:24 | 50.95362 | 16.94251 | 34766 ft | 424 kts | 158° |
| 2026-05-06 13:25 | 50.90167 | 16.98682 | 34769 ft | 424 kts | 158° |
| 2026-05-06 13:25 | 50.84971 | 17.03110 | 34769 ft | 424 kts | 158° |
| 2026-05-06 13:26 | 50.79771 | 17.07530 | 34771 ft | 424 kts | 158° |
| 2026-05-06 13:26 | 50.74565 | 17.11929 | 34771 ft | 424 kts | 158° |
| 2026-05-06 13:27 | 50.69359 | 17.16317 | 34776 ft | 424 kts | 158° |
| 2026-05-06 13:27 | 50.64157 | 17.20712 | 34776 ft | 424 kts | 158° |
| 2026-05-06 13:28 | 50.58948 | 17.25098 | 34779 ft | 424 kts | 158° |
| 2026-05-06 13:28 | 50.53737 | 17.29464 | 34779 ft | 424 kts | 158° |
| 2026-05-06 13:29 | 50.48523 | 17.33812 | 34783 ft | 424 kts | 159° |
| 2026-05-06 13:29 | 50.43304 | 17.38151 | 34785 ft | 425 kts | 158° |
| 2026-05-06 13:30 | 50.38086 | 17.42500 | 34788 ft | 425 kts | 158° |
| 2026-05-06 13:30 | 50.32864 | 17.46843 | 34792 ft | 425 kts | 158° |
| 2026-05-06 13:31 | 50.27611 | 17.51058 | 34794 ft | 421 kts | 164° |
| 2026-05-06 13:31 | 50.22060 | 17.53453 | 34792 ft | 412 kts | 173° |
| 2026-05-06 13:32 | 50.16455 | 17.55427 | 34791 ft | 413 kts | 173° |
| 2026-05-06 13:32 | 50.10888 | 17.57420 | 34795 ft | 413 kts | 173° |
| 2026-05-06 13:33 | 50.05281 | 17.59419 | 34800 ft | 414 kts | 173° |
| 2026-05-06 13:33 | 49.99662 | 17.61401 | 34807 ft | 414 kts | 173° |
| 2026-05-06 13:34 | 49.94042 | 17.63381 | 34815 ft | 414 kts | 173° |
| 2026-05-06 13:34 | 49.88415 | 17.65368 | 34818 ft | 415 kts | 173° |
| 2026-05-06 13:35 | 49.82790 | 17.67336 | 34819 ft | 415 kts | 173° |
| 2026-05-06 13:35 | 49.77161 | 17.69304 | 34823 ft | 415 kts | 173° |
| 2026-05-06 13:36 | 49.71529 | 17.71268 | 34821 ft | 415 kts | 173° |
| 2026-05-06 13:36 | 49.65893 | 17.73233 | 34824 ft | 415 kts | 173° |
| 2026-05-06 13:37 | 49.60251 | 17.75193 | 34827 ft | 416 kts | 173° |
| 2026-05-06 13:37 | 49.54606 | 17.77156 | 34825 ft | 416 kts | 173° |
| 2026-05-06 13:38 | 49.48951 | 17.79110 | 34823 ft | 416 kts | 173° |
| 2026-05-06 13:38 | 49.43296 | 17.81061 | 34824 ft | 417 kts | 173° |
| 2026-05-06 13:39 | 49.37629 | 17.83015 | 34823 ft | 418 kts | 173° |
| 2026-05-06 13:39 | 49.31951 | 17.84973 | 34815 ft | 419 kts | 173° |
| 2026-05-06 13:40 | 49.26264 | 17.86917 | 34819 ft | 419 kts | 173° |
| 2026-05-06 13:40 | 49.20563 | 17.88866 | 34817 ft | 420 kts | 173° |
| 2026-05-06 13:41 | 49.14848 | 17.90823 | 34818 ft | 421 kts | 173° |
| 2026-05-06 13:41 | 49.09121 | 17.92768 | 34822 ft | 422 kts | 173° |
| 2026-05-06 13:42 | 49.03407 | 17.94694 | 34839 ft | 427 kts | 174° |
| 2026-05-06 13:42 | 48.97509 | 17.95722 | 34826 ft | 425 kts | 180° |
| 2026-05-06 13:42 | 48.94582 | 17.96130 | 34518 ft | 420 kts | 181° |
| 2026-05-06 13:43 | 48.91690 | 17.96534 | 34090 ft | 416 kts | 181° |
| 2026-05-06 13:43 | 48.88817 | 17.96932 | 33630 ft | 413 kts | 181° |
| 2026-05-06 13:43 | 48.85963 | 17.97323 | 33151 ft | 410 kts | 181° |
| 2026-05-06 13:43 | 48.83134 | 17.97709 | 32831 ft | 406 kts | 181° |
| 2026-05-06 13:44 | 48.80323 | 17.98091 | 32834 ft | 407 kts | 181° |
| 2026-05-06 13:44 | 48.74667 | 17.98860 | 32836 ft | 409 kts | 181° |
| 2026-05-06 13:45 | 48.68999 | 17.99633 | 32839 ft | 409 kts | 181° |
| 2026-05-06 13:45 | 48.60485 | 18.00801 | 32843 ft | 410 kts | 181° |
| 2026-05-06 13:46 | 48.54815 | 18.01575 | 32497 ft | 407 kts | 181° |
| 2026-05-06 13:46 | 48.52013 | 18.01959 | 32171 ft | 402 kts | 180° |
| 2026-05-06 13:46 | 48.49242 | 18.02336 | 31713 ft | 398 kts | 180° |
| 2026-05-06 13:47 | 48.46491 | 18.02707 | 31273 ft | 395 kts | 180° |
| 2026-05-06 13:47 | 48.43766 | 18.03076 | 30834 ft | 392 kts | 180° |
| 2026-05-06 13:47 | 48.41060 | 18.03442 | 30398 ft | 389 kts | 179° |
| 2026-05-06 13:47 | 48.38374 | 18.03806 | 29966 ft | 386 kts | 179° |
| 2026-05-06 13:48 | 48.35705 | 18.04168 | 29508 ft | 383 kts | 179° |
| 2026-05-06 13:48 | 48.33071 | 18.04594 | 29094 ft | 380 kts | 174° |
| 2026-05-06 13:48 | 48.30522 | 18.05664 | 28683 ft | 382 kts | 162° |
| 2026-05-06 13:48 | 48.28152 | 18.07503 | 28261 ft | 386 kts | 150° |
| 2026-05-06 13:49 | 48.26064 | 18.10062 | 27833 ft | 390 kts | 139° |
| 2026-05-06 13:49 | 48.24269 | 18.13046 | 27412 ft | 390 kts | 136° |
| 2026-05-06 13:49 | 48.22471 | 18.16073 | 27003 ft | 388 kts | 136° |
| 2026-05-06 13:49 | 48.20677 | 18.19073 | 26596 ft | 385 kts | 136° |
| 2026-05-06 13:50 | 48.18886 | 18.22046 | 26198 ft | 383 kts | 136° |
| 2026-05-06 13:50 | 48.17103 | 18.24996 | 25792 ft | 381 kts | 136° |
| 2026-05-06 13:50 | 48.15327 | 18.27930 | 25378 ft | 379 kts | 136° |
| 2026-05-06 13:50 | 48.13562 | 18.30848 | 24961 ft | 377 kts | 136° |
| 2026-05-06 13:51 | 48.11805 | 18.33756 | 24526 ft | 376 kts | 136° |
| 2026-05-06 13:51 | 48.10053 | 18.36653 | 24107 ft | 375 kts | 136° |
| 2026-05-06 13:51 | 48.08306 | 18.39540 | 23669 ft | 374 kts | 136° |
| 2026-05-06 13:51 | 48.06560 | 18.42421 | 23232 ft | 372 kts | 136° |
| 2026-05-06 13:52 | 48.04830 | 18.45273 | 22822 ft | 368 kts | 136° |
| 2026-05-06 13:52 | 48.03121 | 18.48088 | 22417 ft | 364 kts | 136° |
| 2026-05-06 13:52 | 48.01427 | 18.50873 | 22020 ft | 361 kts | 136° |
| 2026-05-06 13:52 | 47.99745 | 18.53635 | 21621 ft | 358 kts | 136° |
| 2026-05-06 13:53 | 47.98073 | 18.56375 | 21235 ft | 355 kts | 136° |
| 2026-05-06 13:53 | 47.96419 | 18.59092 | 20851 ft | 352 kts | 136° |
| 2026-05-06 13:53 | 47.94785 | 18.61800 | 20478 ft | 350 kts | 136° |
| 2026-05-06 13:53 | 47.93166 | 18.64494 | 20103 ft | 348 kts | 136° |
| 2026-05-06 13:54 | 47.91561 | 18.67168 | 19738 ft | 345 kts | 136° |
| 2026-05-06 13:54 | 47.89963 | 18.69822 | 19376 ft | 343 kts | 136° |
| 2026-05-06 13:54 | 47.88375 | 18.72453 | 18996 ft | 340 kts | 136° |
| 2026-05-06 13:54 | 47.86798 | 18.75059 | 18647 ft | 338 kts | 136° |
| 2026-05-06 13:55 | 47.85248 | 18.77615 | 18257 ft | 336 kts | 136° |
| 2026-05-06 13:55 | 47.83662 | 18.80226 | 17811 ft | 334 kts | 136° |
| 2026-05-06 13:55 | 47.82129 | 18.82750 | 17370 ft | 333 kts | 136° |
| 2026-05-06 13:55 | 47.80582 | 18.85300 | 16923 ft | 331 kts | 136° |
| 2026-05-06 13:56 | 47.79041 | 18.87837 | 16483 ft | 330 kts | 136° |
| 2026-05-06 13:56 | 47.77506 | 18.90362 | 16053 ft | 328 kts | 136° |
| 2026-05-06 13:56 | 47.75976 | 18.92874 | 15623 ft | 327 kts | 136° |
| 2026-05-06 13:56 | 47.74447 | 18.95375 | 15196 ft | 326 kts | 136° |
| 2026-05-06 13:57 | 47.72924 | 18.97868 | 14788 ft | 325 kts | 136° |
| 2026-05-06 13:57 | 47.71407 | 19.00356 | 14383 ft | 325 kts | 136° |
| 2026-05-06 13:57 | 47.69893 | 19.02839 | 13980 ft | 324 kts | 136° |
| 2026-05-06 13:57 | 47.68379 | 19.05314 | 13573 ft | 323 kts | 136° |
| 2026-05-06 13:58 | 47.66866 | 19.07778 | 13119 ft | 323 kts | 136° |
| 2026-05-06 13:58 | 47.65359 | 19.10232 | 12679 ft | 321 kts | 136° |
| 2026-05-06 13:58 | 47.63859 | 19.12677 | 12238 ft | 320 kts | 136° |
| 2026-05-06 13:58 | 47.62363 | 19.15112 | 11811 ft | 319 kts | 136° |
| 2026-05-06 13:59 | 47.60874 | 19.17531 | 11423 ft | 317 kts | 136° |
| 2026-05-06 13:59 | 47.59396 | 19.19936 | 11025 ft | 315 kts | 136° |
| 2026-05-06 13:59 | 47.57926 | 19.22326 | 10620 ft | 313 kts | 136° |
| 2026-05-06 13:59 | 47.56462 | 19.24701 | 10240 ft | 311 kts | 136° |
| 2026-05-06 14:00 | 47.55005 | 19.27059 | 9854 ft | 310 kts | 136° |
| 2026-05-06 14:00 | 47.53558 | 19.29406 | 9447 ft | 308 kts | 136° |
| 2026-05-06 14:00 | 47.52112 | 19.31747 | 9020 ft | 307 kts | 136° |
| 2026-05-06 14:00 | 47.50707 | 19.34025 | 8602 ft | 292 kts | 137° |
| 2026-05-06 14:01 | 47.49358 | 19.36210 | 8222 ft | 286 kts | 137° |
| 2026-05-06 14:01 | 47.48017 | 19.38368 | 7845 ft | 284 kts | 136° |
| 2026-05-06 14:01 | 47.46684 | 19.40512 | 7465 ft | 282 kts | 136° |
| 2026-05-06 14:01 | 47.45363 | 19.42636 | 7106 ft | 280 kts | 136° |
| 2026-05-06 14:02 | 47.44052 | 19.44746 | 6738 ft | 278 kts | 136° |
| 2026-05-06 14:02 | 47.42765 | 19.46810 | 6389 ft | 276 kts | 136° |
| 2026-05-06 14:02 | 47.41471 | 19.48884 | 6005 ft | 274 kts | 136° |
| 2026-05-06 14:02 | 47.40186 | 19.50945 | 5616 ft | 272 kts | 136° |
| 2026-05-06 14:03 | 47.38914 | 19.52988 | 5242 ft | 265 kts | 136° |
| 2026-05-06 14:03 | 47.37700 | 19.54923 | 4869 ft | 249 kts | 141° |
| 2026-05-06 14:03 | 47.36276 | 19.56169 | 4410 ft | 231 kts | 168° |
| 2026-05-06 14:03 | 47.34740 | 19.56235 | 3919 ft | 216 kts | 195° |
| 2026-05-06 14:04 | 47.33415 | 19.55296 | 3434 ft | 213 kts | 219° |
| 2026-05-06 14:04 | 47.32324 | 19.53818 | 3150 ft | 214 kts | 222° |
| 2026-05-06 14:04 | 47.31230 | 19.52332 | 3028 ft | 214 kts | 223° |
| 2026-05-06 14:04 | 47.30451 | 19.50481 | 2994 ft | 219 kts | 255° |
| 2026-05-06 14:05 | 47.30643 | 19.48245 | 2997 ft | 230 kts | 294° |
| 2026-05-06 14:05 | 47.31656 | 19.46385 | 3001 ft | 232 kts | 309° |
| 2026-05-06 14:05 | 47.32715 | 19.44768 | 3014 ft | 208 kts | 308° |
| 2026-05-06 14:05 | 47.33675 | 19.43255 | 2904 ft | 199 kts | 307° |
| 2026-05-06 14:06 | 47.34595 | 19.41781 | 2650 ft | 193 kts | 308° |
| 2026-05-06 14:06 | 47.35483 | 19.40358 | 2425 ft | 177 kts | 307° |
| 2026-05-06 14:06 | 47.36269 | 19.39098 | 2189 ft | 159 kts | 307° |
| 2026-05-06 14:06 | 47.36992 | 19.37934 | 1991 ft | 150 kts | 306° |
| 2026-05-06 14:07 | 47.37690 | 19.36808 | 1806 ft | 148 kts | 306° |
| 2026-05-06 14:07 | 47.38380 | 19.35696 | 1617 ft | 147 kts | 307° |
| 2026-05-06 14:07 | 47.39067 | 19.34591 | 1414 ft | 146 kts | 306° |
| 2026-05-06 14:07 | 47.39743 | 19.33496 | 1177 ft | 143 kts | 301° |
| 2026-05-06 14:08 | 47.40417 | 19.32427 | 954 ft | 142 kts | 303° |
| 2026-05-06 14:08 | 47.41071 | 19.31354 | 760 ft | 141 kts | 304° |
| 2026-05-06 14:08 | 47.41740 | 19.30293 | 620 ft | 141 kts | 304° |
| 2026-05-06 14:08 | 47.42403 | 19.29214 | 468 ft | 142 kts | 307° |
| 2026-05-06 14:09 | 47.43005 | 19.28240 | 455 ft | 108 kts | 312° |
| 2026-05-06 14:09 | 47.43393 | 19.27616 | 463 ft | 66 kts | 313° |
| 2026-05-06 14:09 | 47.43659 | 19.27180 | 473 ft | 36 kts | 309° |
| 2026-05-06 14:09 | 47.43744 | 19.26914 | 470 ft | 23 kts | 285° |
| 2026-05-06 14:10 | 47.43769 | 19.26753 | 463 ft | 25 kts | 284° |
| 2026-05-06 14:10 | 47.43799 | 19.26552 | 459 ft | 13 kts | 282° |
| 2026-05-06 14:10 | 47.43772 | 19.26446 | 458 ft | 11 kts | 222° |
| 2026-05-06 14:10 | 47.43716 | 19.26370 | 458 ft | 10 kts | 221° |
| 2026-05-06 14:11 | 47.43640 | 19.26391 | 458 ft | 7 kts | 134° |
| 2026-05-06 14:11 | 47.43604 | 19.26450 | 457 ft | 9 kts | 132° |
| 2026-05-06 14:11 | 47.43574 | 19.26497 | 458 ft | 9 kts | 133° |
| 2026-05-06 14:11 | 47.43534 | 19.26509 | 458 ft | 6 kts | 208° |
| 2026-05-06 14:12 | 47.43513 | 19.26481 | 458 ft | 1 kts | 222° |
| 2026-05-06 14:12 | 47.43511 | 19.26478 | 458 ft | 0 kts | 222° |